createdAt,value
2022-08-20T00:02:13.214Z,18.20
2022-08-20T00:04:42.392Z,18.20
2022-08-20T00:07:10.302Z,18.20
2022-08-20T00:09:38.303Z,18.30
2022-08-20T00:12:07.151Z,18.20
2022-08-20T00:14:35.741Z,18.30
2022-08-20T00:17:04.070Z,18.30
2022-08-20T00:19:32.242Z,18.20
2022-08-20T00:22:01.494Z,18.30
2022-08-20T00:24:29.306Z,18.20
2022-08-20T00:26:57.203Z,18.30
2022-08-20T00:29:25.094Z,18.20
2022-08-20T00:31:53.018Z,18.20
2022-08-20T00:34:20.878Z,18.30
2022-08-20T00:36:48.882Z,18.20
2022-08-20T00:39:18.065Z,18.30
2022-08-20T00:41:45.993Z,18.20
2022-08-20T00:44:16.815Z,18.20
2022-08-20T00:46:46.176Z,18.20
2022-08-20T00:49:18.406Z,18.20
2022-08-20T00:51:50.053Z,18.30
2022-08-20T00:54:23.851Z,18.30
2022-08-20T00:56:57.121Z,18.30
2022-08-20T00:59:29.613Z,18.30
2022-08-20T01:01:58.518Z,18.30
2022-08-20T01:04:27.663Z,18.30
2022-08-20T01:06:55.638Z,18.30
2022-08-20T01:09:49.754Z,18.40
2022-08-20T01:12:15.579Z,18.40
2022-08-20T01:14:46.370Z,18.40
2022-08-20T01:17:18.499Z,18.40
2022-08-20T01:19:53.192Z,18.50
2022-08-20T01:22:46.448Z,18.50
2022-08-20T01:25:23.928Z,18.50
2022-08-20T01:27:55.647Z,18.50
2022-08-20T01:30:27.509Z,18.50
2022-08-20T01:32:55.838Z,18.50
2022-08-20T01:35:25.875Z,18.60
2022-08-20T01:37:53.863Z,18.60
2022-08-20T01:40:30.182Z,18.60
2022-08-20T01:42:59.904Z,18.60
2022-08-20T01:45:30.456Z,18.60
2022-08-20T01:47:59.604Z,18.60
2022-08-20T01:50:31.642Z,18.60
2022-08-20T01:53:05.310Z,18.60
2022-08-20T01:55:33.298Z,18.70
2022-08-20T01:58:03.153Z,18.70
2022-08-20T02:00:32.487Z,18.70
2022-08-20T02:03:00.283Z,18.70
2022-08-20T02:05:30.665Z,18.70
2022-08-20T02:07:59.208Z,18.70
2022-08-20T02:10:28.360Z,18.70
2022-08-20T02:13:00.091Z,18.70
2022-08-20T02:15:34.737Z,18.70
2022-08-20T02:18:05.658Z,18.70
2022-08-20T02:20:37.286Z,18.60
2022-08-20T02:23:07.239Z,18.70
2022-08-20T02:25:37.865Z,18.60
2022-08-20T02:28:17.433Z,18.60
2022-08-20T02:30:48.948Z,18.60
2022-08-20T02:33:19.235Z,18.60
2022-08-20T02:35:49.275Z,18.60
2022-08-20T02:38:17.737Z,18.60
2022-08-20T02:40:49.103Z,18.60
2022-08-20T02:43:18.257Z,18.60
2022-08-20T02:45:47.582Z,18.60
2022-08-20T02:48:22.918Z,18.60
2022-08-20T02:50:53.821Z,18.60
2022-08-20T02:53:22.631Z,18.60
2022-08-20T02:55:51.051Z,18.60
2022-08-20T02:58:19.842Z,18.60
2022-08-20T03:00:49.674Z,18.60
2022-08-20T03:03:22.333Z,18.50
2022-08-20T03:05:52.109Z,18.60
2022-08-20T03:08:20.419Z,18.50
2022-08-20T03:10:48.794Z,18.50
2022-08-20T03:13:17.206Z,18.50
2022-08-20T03:15:48.586Z,18.50
2022-08-20T03:18:19.669Z,18.50
2022-08-20T03:20:52.131Z,18.50
2022-08-20T03:23:21.852Z,18.50
2022-08-20T03:25:50.013Z,18.50
2022-08-20T03:28:18.870Z,18.60
2022-08-20T03:30:47.014Z,18.60
2022-08-20T03:33:16.125Z,18.60
2022-08-20T03:35:45.313Z,18.60
2022-08-20T03:38:14.654Z,18.60
2022-08-20T03:40:42.975Z,18.60
2022-08-20T03:43:11.462Z,18.60
2022-08-20T03:45:41.269Z,18.60
2022-08-20T03:48:11.210Z,18.60
2022-08-20T03:50:42.409Z,18.60
2022-08-20T03:53:14.637Z,18.60
2022-08-20T03:55:45.320Z,18.60
2022-08-20T03:58:15.078Z,18.60
2022-08-20T04:00:49.786Z,18.60
2022-08-20T04:03:18.321Z,18.60
2022-08-20T04:05:47.086Z,18.60
2022-08-20T04:08:19.296Z,18.60
2022-08-20T04:10:48.252Z,18.60
2022-08-20T04:13:17.448Z,18.60
2022-08-20T04:15:46.246Z,18.60
2022-08-20T04:18:20.278Z,18.60
2022-08-20T04:20:48.861Z,18.60
2022-08-20T04:23:18.055Z,18.60
2022-08-20T04:25:46.973Z,18.70
2022-08-20T04:28:17.100Z,18.70
2022-08-20T04:30:51.687Z,18.70
2022-08-20T04:33:19.918Z,18.70
2022-08-20T04:36:02.740Z,18.80
2022-08-20T04:38:48.516Z,18.70
2022-08-20T04:41:22.621Z,18.80
2022-08-20T04:43:52.943Z,18.70
2022-08-20T04:46:22.379Z,18.80
2022-08-20T04:48:50.625Z,18.80
2022-08-20T04:51:22.702Z,18.80
2022-08-20T04:53:54.333Z,18.80
2022-08-20T04:56:24.288Z,18.80
2022-08-20T04:58:53.332Z,18.90
2022-08-20T05:01:21.728Z,18.90
2022-08-20T05:03:49.783Z,18.90
2022-08-20T05:06:18.681Z,19.00
2022-08-20T05:08:46.717Z,19.00
2022-08-20T05:11:34.254Z,19.00
2022-08-20T05:14:05.156Z,19.10
2022-08-20T05:16:37.727Z,19.20
2022-08-20T05:19:06.495Z,19.40
2022-08-20T05:21:34.314Z,19.50
2022-08-20T05:24:02.827Z,19.60
2022-08-20T05:26:33.241Z,19.60
2022-08-20T05:29:01.108Z,19.70
2022-08-20T05:31:31.755Z,19.70
2022-08-20T05:34:01.038Z,19.70
2022-08-20T05:36:29.005Z,19.70
2022-08-20T05:38:56.880Z,19.70
2022-08-20T05:41:28.757Z,19.70
2022-08-20T05:44:01.780Z,19.70
2022-08-20T05:46:32.133Z,19.80
2022-08-20T05:49:01.237Z,19.70
2022-08-20T05:51:29.184Z,19.70
2022-08-20T05:53:57.981Z,19.80
2022-08-20T05:56:30.097Z,19.80
2022-08-20T05:59:01.326Z,19.90
2022-08-20T06:01:29.827Z,19.90
2022-08-20T06:04:15.239Z,19.80
2022-08-20T06:06:45.250Z,19.90
2022-08-20T06:09:15.263Z,19.90
2022-08-20T06:11:43.155Z,20.00
2022-08-20T06:14:12.382Z,20.00
2022-08-20T06:16:40.274Z,20.10
2022-08-20T06:19:26.307Z,20.20
2022-08-20T06:21:54.635Z,20.20
2022-08-20T06:24:22.670Z,20.30
2022-08-20T06:26:56.869Z,20.30
2022-08-20T06:29:26.489Z,20.40
2022-08-20T06:31:54.423Z,20.50
2022-08-20T06:34:22.427Z,20.50
2022-08-20T06:36:50.272Z,20.50
2022-08-20T06:39:18.196Z,20.60
2022-08-20T06:41:46.096Z,20.70
2022-08-20T06:44:14.673Z,20.90
2022-08-20T06:46:45.320Z,20.90
2022-08-20T06:49:13.242Z,20.90
2022-08-20T06:51:41.467Z,21.00
2022-08-20T06:54:09.535Z,21.00
2022-08-20T06:56:37.561Z,21.00
2022-08-20T06:59:05.492Z,21.00
2022-08-20T07:01:33.479Z,21.00
2022-08-20T07:04:02.962Z,21.00
2022-08-20T07:06:31.067Z,21.00
2022-08-20T07:08:59.044Z,21.10
2022-08-20T07:11:28.478Z,21.10
2022-08-20T07:13:58.083Z,21.20
2022-08-20T07:16:26.261Z,21.30
2022-08-20T07:18:54.113Z,21.50
2022-08-20T07:21:23.263Z,21.60
2022-08-20T07:23:51.206Z,21.70
2022-08-20T07:26:19.122Z,21.70
2022-08-20T07:28:47.578Z,21.60
2022-08-20T07:31:33.189Z,21.60
2022-08-20T07:34:03.065Z,21.50
2022-08-20T07:36:32.785Z,21.50
2022-08-20T07:39:05.825Z,21.60
2022-08-20T07:41:34.753Z,21.60
2022-08-20T07:44:02.811Z,21.70
2022-08-20T07:46:31.718Z,21.70
2022-08-20T07:49:00.077Z,21.70
2022-08-20T07:51:28.484Z,21.80
2022-08-20T07:53:59.982Z,21.90
2022-08-20T07:56:28.137Z,22.00
2022-08-20T07:59:01.516Z,22.00
2022-08-20T08:01:32.405Z,22.00
2022-08-20T08:04:01.125Z,22.00
2022-08-20T08:06:31.359Z,22.10
2022-08-20T08:09:10.588Z,22.10
2022-08-20T08:11:46.952Z,22.40
2022-08-20T08:14:15.585Z,22.60
2022-08-20T08:16:45.543Z,22.90
2022-08-20T08:19:16.665Z,23.10
2022-08-20T08:21:45.238Z,23.10
2022-08-20T08:24:20.263Z,22.90
2022-08-20T08:26:50.671Z,22.70
2022-08-20T08:29:18.644Z,22.60
2022-08-20T08:31:46.560Z,22.70
2022-08-20T08:34:14.728Z,23.10
2022-08-20T08:36:44.185Z,23.60
2022-08-20T08:39:12.169Z,23.90
2022-08-20T08:41:49.429Z,24.00
2022-08-20T08:44:24.009Z,24.00
2022-08-20T08:46:57.986Z,24.20
2022-08-20T08:49:37.279Z,24.60
2022-08-20T08:52:11.882Z,24.70
2022-08-20T08:54:43.687Z,24.60
2022-08-20T08:57:13.097Z,24.80
2022-08-20T08:59:52.198Z,24.80
2022-08-20T09:02:31.743Z,24.70
2022-08-20T09:05:02.669Z,24.40
2022-08-20T09:07:35.119Z,24.40
2022-08-20T09:10:03.802Z,24.30
2022-08-20T09:12:33.118Z,24.20
2022-08-20T09:15:01.389Z,24.40
2022-08-20T09:17:29.385Z,24.70
2022-08-20T09:19:57.368Z,25.00
2022-08-20T09:22:26.425Z,24.90
2022-08-20T09:24:54.473Z,24.90
2022-08-20T09:27:22.283Z,25.00
2022-08-20T09:29:53.396Z,25.00
2022-08-20T09:32:24.338Z,25.00
2022-08-20T09:34:56.770Z,25.20
2022-08-20T09:37:26.406Z,25.50
2022-08-20T09:39:54.591Z,25.50
2022-08-20T09:42:28.006Z,25.60
2022-08-20T09:44:57.489Z,25.50
2022-08-20T09:47:25.682Z,25.20
2022-08-20T09:49:53.861Z,25.40
2022-08-20T09:52:24.333Z,25.50
2022-08-20T09:54:54.778Z,25.70
2022-08-20T09:57:23.468Z,25.50
2022-08-20T09:59:58.052Z,25.50
2022-08-20T10:02:26.265Z,25.60
2022-08-20T10:04:54.212Z,25.50
2022-08-20T10:07:22.130Z,25.40
2022-08-20T10:09:49.959Z,25.10
2022-08-20T10:12:17.841Z,25.00
2022-08-20T10:14:45.747Z,24.90
2022-08-20T10:17:15.036Z,25.00
2022-08-20T10:19:42.972Z,25.00
2022-08-20T10:22:10.915Z,24.90
2022-08-20T10:24:38.884Z,24.80
2022-08-20T10:27:07.199Z,24.50
2022-08-20T10:29:35.078Z,24.70
2022-08-20T10:32:11.960Z,24.90
2022-08-20T10:34:42.818Z,25.00
2022-08-20T10:37:11.418Z,25.00
2022-08-20T10:39:39.287Z,25.10
2022-08-20T10:42:07.538Z,25.40
2022-08-20T10:44:35.364Z,25.50
2022-08-20T10:47:19.362Z,25.60
2022-08-20T10:49:50.050Z,25.60
2022-08-20T10:52:18.079Z,25.50
2022-08-20T10:54:46.281Z,25.70
2022-08-20T10:57:16.175Z,25.80
2022-08-20T10:59:46.557Z,25.90
2022-08-20T11:02:14.604Z,25.80
2022-08-20T11:04:42.577Z,25.80
2022-08-20T11:07:16.920Z,25.80
2022-08-20T11:09:46.086Z,25.80
2022-08-20T11:12:13.997Z,25.80
2022-08-20T11:14:42.436Z,25.50
2022-08-20T11:17:10.917Z,25.40
2022-08-20T11:19:43.174Z,25.20
2022-08-20T11:22:12.085Z,25.20
2022-08-20T11:24:41.234Z,25.20
2022-08-20T11:27:10.341Z,25.30
2022-08-20T11:29:39.014Z,25.30
2022-08-20T11:32:07.575Z,25.40
2022-08-20T11:34:35.442Z,25.50
2022-08-20T11:37:03.308Z,25.80
2022-08-20T11:39:31.121Z,25.90
2022-08-20T11:42:01.731Z,25.70
2022-08-20T11:44:29.575Z,25.60
2022-08-20T11:46:59.829Z,25.70
2022-08-20T11:49:27.685Z,25.70
2022-08-20T11:51:55.442Z,25.70
2022-08-20T11:54:23.320Z,25.70
2022-08-20T11:56:51.280Z,25.70
2022-08-20T11:59:20.866Z,25.70
2022-08-20T12:02:02.730Z,25.60
2022-08-20T12:04:33.569Z,25.20
2022-08-20T12:07:10.395Z,24.90
2022-08-20T12:09:40.101Z,24.80
2022-08-20T12:12:21.228Z,24.70
2022-08-20T12:14:50.574Z,24.70
2022-08-20T12:17:21.454Z,24.90
2022-08-20T12:19:49.340Z,25.10
2022-08-20T12:22:24.931Z,25.10
2022-08-20T12:24:54.388Z,25.30
2022-08-20T12:27:24.989Z,25.40
2022-08-20T12:29:56.013Z,25.40
2022-08-20T12:32:26.183Z,25.20
2022-08-20T12:34:54.994Z,24.90
2022-08-20T12:37:26.444Z,24.80
2022-08-20T12:39:56.743Z,24.80
2022-08-20T12:42:25.375Z,25.30
2022-08-20T12:44:54.833Z,25.60
2022-08-20T12:47:25.030Z,25.50
2022-08-20T12:49:56.286Z,25.50
2022-08-20T12:52:26.814Z,25.40
2022-08-20T12:54:55.152Z,25.40
2022-08-20T12:57:28.680Z,25.50
2022-08-20T12:59:59.029Z,25.70
2022-08-20T13:02:27.698Z,25.70
2022-08-20T13:04:55.915Z,25.70
2022-08-20T13:07:26.364Z,25.60
2022-08-20T13:09:55.690Z,25.50
2022-08-20T13:12:23.537Z,25.50
2022-08-20T13:14:51.389Z,25.30
2022-08-20T13:17:33.631Z,25.20
2022-08-20T13:20:10.320Z,25.00
2022-08-20T13:22:38.255Z,25.00
2022-08-20T13:25:07.610Z,25.00
2022-08-20T13:27:38.228Z,25.00
2022-08-20T13:30:08.572Z,25.10
2022-08-20T13:32:37.880Z,24.90
2022-08-20T13:35:06.414Z,24.80
2022-08-20T13:37:34.557Z,24.90
2022-08-20T13:40:02.947Z,24.90
2022-08-20T13:42:30.926Z,24.80
2022-08-20T13:44:58.752Z,24.80
2022-08-20T13:47:28.521Z,24.90
2022-08-20T13:49:59.469Z,25.00
2022-08-20T13:52:28.346Z,25.00
2022-08-20T13:54:56.170Z,24.70
2022-08-20T13:57:25.637Z,24.70
2022-08-20T13:59:55.334Z,24.60
2022-08-20T14:02:24.129Z,24.60
2022-08-20T14:04:52.741Z,24.70
2022-08-20T14:07:26.786Z,24.70
2022-08-20T14:10:00.212Z,24.60
2022-08-20T14:12:30.746Z,24.70
2022-08-20T14:14:59.339Z,24.80
2022-08-20T14:17:29.061Z,24.80
2022-08-20T14:20:01.312Z,24.60
2022-08-20T14:22:31.638Z,24.50
2022-08-20T14:25:03.291Z,24.60
2022-08-20T14:27:33.327Z,24.60
2022-08-20T14:30:01.644Z,24.50
2022-08-20T14:32:29.634Z,24.50
2022-08-20T14:34:59.278Z,24.60
2022-08-20T14:37:29.053Z,24.70
2022-08-20T14:40:00.376Z,24.70
2022-08-20T14:42:29.789Z,24.70
2022-08-20T14:44:58.943Z,24.60
2022-08-20T14:47:28.691Z,24.70
2022-08-20T14:50:01.990Z,24.70
2022-08-20T14:52:31.286Z,24.70
2022-08-20T14:55:00.442Z,24.80
2022-08-20T14:57:28.302Z,24.70
2022-08-20T14:59:56.142Z,24.60
2022-08-20T15:02:24.081Z,24.60
2022-08-20T15:04:54.363Z,24.70
2022-08-20T15:07:26.807Z,24.80
2022-08-20T15:09:55.507Z,24.90
2022-08-20T15:12:25.157Z,24.90
2022-08-20T15:14:53.064Z,24.90
2022-08-20T15:17:24.312Z,24.80
2022-08-20T15:19:52.377Z,24.70
2022-08-20T15:22:21.160Z,24.50
2022-08-20T15:24:49.289Z,24.40
2022-08-20T15:27:23.460Z,24.30
2022-08-20T15:29:54.180Z,24.40
2022-08-20T15:32:22.543Z,24.20
2022-08-20T15:34:50.672Z,24.10
2022-08-20T15:37:21.561Z,24.10
2022-08-20T15:39:50.248Z,24.10
2022-08-20T15:42:19.524Z,23.90
2022-08-20T15:44:47.902Z,23.90
2022-08-20T15:47:24.292Z,24.00
2022-08-20T15:49:55.938Z,24.00
2022-08-20T15:52:25.873Z,24.10
2022-08-20T15:54:55.138Z,24.10
2022-08-20T15:57:42.533Z,23.90
2022-08-20T16:00:15.501Z,24.00
2022-08-20T16:03:20.534Z,24.00
2022-08-20T16:05:53.476Z,24.10
2022-08-20T16:08:36.005Z,24.10
2022-08-20T16:11:13.526Z,24.00
2022-08-20T16:13:46.580Z,24.00
2022-08-20T16:16:18.637Z,23.70
2022-08-20T16:18:51.868Z,23.80
2022-08-20T16:21:27.410Z,23.60
2022-08-20T16:23:56.555Z,23.60
2022-08-20T16:26:53.245Z,23.70
2022-08-20T16:29:26.335Z,23.70
2022-08-20T16:31:57.067Z,23.50
2022-08-20T16:34:34.372Z,23.40
2022-08-20T16:37:10.101Z,23.40
2022-08-20T16:39:45.722Z,23.50
2022-08-20T16:42:21.681Z,23.60
2022-08-20T16:44:54.008Z,23.60
2022-08-20T16:47:26.254Z,23.60
2022-08-20T16:50:00.647Z,23.50
2022-08-20T16:52:29.177Z,23.50
2022-08-20T16:54:57.687Z,23.60
2022-08-20T16:57:28.486Z,23.50
2022-08-20T16:59:59.576Z,23.50
2022-08-20T17:02:27.958Z,23.40
2022-08-20T17:05:01.969Z,23.20
2022-08-20T17:07:46.043Z,23.10
2022-08-20T17:10:21.186Z,23.00
2022-08-20T17:12:54.898Z,22.90
2022-08-20T17:15:26.532Z,22.90
2022-08-20T17:17:55.842Z,23.00
2022-08-20T17:20:28.043Z,22.90
2022-08-20T17:23:12.166Z,22.90
2022-08-20T17:25:39.990Z,22.80
2022-08-20T17:28:16.423Z,22.90
2022-08-20T17:30:46.109Z,22.80
2022-08-20T17:33:25.198Z,22.70
2022-08-20T17:35:56.532Z,22.40
2022-08-20T17:38:29.000Z,22.30
2022-08-20T17:41:00.790Z,22.30
2022-08-20T17:43:31.192Z,22.30
2022-08-20T17:46:01.884Z,22.20
2022-08-20T17:48:35.358Z,22.20
2022-08-20T17:51:14.659Z,22.10
2022-08-20T17:53:45.044Z,22.00
2022-08-20T17:56:19.505Z,21.90
2022-08-20T17:58:54.052Z,21.90
2022-08-20T18:01:23.986Z,21.80
2022-08-20T18:03:53.582Z,21.80
2022-08-20T18:06:30.782Z,21.80
2022-08-20T18:09:04.822Z,21.80
2022-08-20T18:11:37.517Z,21.80
2022-08-20T18:14:28.018Z,21.70
2022-08-20T18:17:06.012Z,21.50
2022-08-20T18:20:06.176Z,21.50
2022-08-20T18:22:44.685Z,21.40
2022-08-20T18:25:29.154Z,21.40
2022-08-20T18:28:02.804Z,21.40
2022-08-20T18:30:31.342Z,21.40
2022-08-20T18:33:05.885Z,21.40
2022-08-20T18:35:37.332Z,21.30
2022-08-20T18:38:28.571Z,21.30
2022-08-20T18:41:08.215Z,21.40
2022-08-20T18:43:36.494Z,21.40
2022-08-20T18:46:21.578Z,21.30
2022-08-20T18:48:56.030Z,21.30
2022-08-20T18:51:33.276Z,21.30
2022-08-20T18:54:02.526Z,21.20
2022-08-20T18:56:38.133Z,21.10
2022-08-20T18:59:11.569Z,21.10
2022-08-20T19:01:41.275Z,21.00
2022-08-20T19:04:25.753Z,21.00
2022-08-20T19:06:57.895Z,21.10
2022-08-20T19:09:50.426Z,21.00
2022-08-20T19:12:30.230Z,20.90
2022-08-20T19:15:02.293Z,20.70
2022-08-20T19:17:43.771Z,20.60
2022-08-20T19:20:16.541Z,20.60
2022-08-20T19:22:46.164Z,20.60
2022-08-20T19:25:28.973Z,20.70
2022-08-20T19:27:58.073Z,20.60
2022-08-20T19:30:35.931Z,20.30
2022-08-20T19:33:04.429Z,20.20
2022-08-20T19:35:32.287Z,20.10
2022-08-20T19:38:02.129Z,20.10
2022-08-20T19:40:35.165Z,20.10
2022-08-20T19:43:12.866Z,20.00
2022-08-20T19:45:45.750Z,19.90
2022-08-20T19:48:29.944Z,19.90
2022-08-20T19:51:06.371Z,19.90
2022-08-20T19:53:37.050Z,19.80
2022-08-20T19:56:11.269Z,19.70
2022-08-20T19:58:39.199Z,19.60
2022-08-20T20:01:18.124Z,19.50
2022-08-20T20:03:58.330Z,19.50
2022-08-20T20:06:27.426Z,19.50
2022-08-20T20:08:58.875Z,19.40
2022-08-20T20:11:37.443Z,19.40
2022-08-20T20:14:08.270Z,19.30
2022-08-20T20:16:38.013Z,19.30
2022-08-20T20:19:26.774Z,19.20
2022-08-20T20:22:08.479Z,19.10
2022-08-20T20:24:57.589Z,18.90
2022-08-20T20:27:28.744Z,18.80
2022-08-20T20:30:01.480Z,18.70
2022-08-20T20:32:30.442Z,18.60
2022-08-20T20:35:00.577Z,18.60
2022-08-20T20:37:49.127Z,18.50
2022-08-20T20:40:24.345Z,18.40
2022-08-20T20:43:02.064Z,18.30
2022-08-20T20:45:34.758Z,18.20
2022-08-20T20:48:12.768Z,18.10
2022-08-20T20:50:40.791Z,18.00
2022-08-20T20:53:09.017Z,18.00
2022-08-20T20:55:39.189Z,17.90
2022-08-20T20:58:08.432Z,17.80
2022-08-20T21:00:36.330Z,17.70
2022-08-20T21:03:04.446Z,17.70
2022-08-20T21:05:33.981Z,17.70
2022-08-20T21:08:04.851Z,17.70
2022-08-20T21:10:37.522Z,17.60
2022-08-20T21:13:07.954Z,17.60
2022-08-20T21:15:39.375Z,17.60
2022-08-20T21:18:09.229Z,17.50
2022-08-20T21:20:37.881Z,17.40
2022-08-20T21:23:05.832Z,17.30
2022-08-20T21:25:35.440Z,17.30
2022-08-20T21:28:04.161Z,17.30
2022-08-20T21:30:33.650Z,17.20
2022-08-20T21:33:03.021Z,17.20
2022-08-20T21:35:30.841Z,17.20
2022-08-20T21:37:58.820Z,17.10
2022-08-20T21:40:28.454Z,17.10
2022-08-20T21:42:57.326Z,17.00
2022-08-20T21:45:28.268Z,17.00
2022-08-20T21:47:57.143Z,16.80
2022-08-20T21:50:27.188Z,16.80
2022-08-20T21:52:59.496Z,16.80
2022-08-20T21:55:30.076Z,16.80
2022-08-20T21:57:58.681Z,16.70
2022-08-20T22:00:49.847Z,16.70
2022-08-20T22:03:20.056Z,16.70
2022-08-20T22:05:49.894Z,16.60
2022-08-20T22:08:18.469Z,16.50
2022-08-20T22:10:47.062Z,16.50
2022-08-20T22:13:16.306Z,16.40
2022-08-20T22:15:44.162Z,16.40
2022-08-20T22:18:12.085Z,16.40
2022-08-20T22:20:41.281Z,16.30
2022-08-20T22:23:10.883Z,16.30
2022-08-20T22:25:38.913Z,16.30
2022-08-20T22:28:07.012Z,16.20
2022-08-20T22:30:38.332Z,16.20
2022-08-20T22:33:11.341Z,16.10
2022-08-20T22:35:43.587Z,16.10
2022-08-20T22:38:12.984Z,16.00
2022-08-20T22:40:40.764Z,16.00
2022-08-20T22:43:08.934Z,16.00
2022-08-20T22:45:37.174Z,15.90
2022-08-20T22:48:07.629Z,15.90
2022-08-20T22:50:37.879Z,15.90
2022-08-20T22:53:07.185Z,15.80
2022-08-20T22:55:38.358Z,15.80
2022-08-20T22:58:07.080Z,15.80
2022-08-20T23:00:36.022Z,15.70
2022-08-20T23:03:05.000Z,15.70
2022-08-20T23:05:36.233Z,15.70
2022-08-20T23:08:05.822Z,15.70
2022-08-20T23:10:36.996Z,15.70
2022-08-20T23:13:05.544Z,15.70
2022-08-20T23:15:35.756Z,15.60
2022-08-20T23:18:08.798Z,15.60
2022-08-20T23:20:36.679Z,15.60
2022-08-20T23:23:05.149Z,15.50
2022-08-20T23:25:33.351Z,15.50
2022-08-20T23:28:04.231Z,15.50
2022-08-20T23:30:32.522Z,15.50
2022-08-20T23:33:01.608Z,15.50
2022-08-20T23:35:32.044Z,15.40
2022-08-20T23:38:01.467Z,15.30
2022-08-20T23:40:32.061Z,15.30
2022-08-20T23:43:00.307Z,15.30
2022-08-20T23:45:30.591Z,15.20
2022-08-20T23:47:58.432Z,15.20
2022-08-20T23:50:29.175Z,15.20
2022-08-20T23:52:57.715Z,15.20
2022-08-20T23:55:26.125Z,15.20
2022-08-20T23:57:54.370Z,15.20
